sensor_id;sensor_type;location;lat;lon;timestamp;pressure;altitude;pressure_sealevel;temperature;humidity
75051;BME280;63628;47.656;11.310;2022-10-15T00:00:06;94434.59;;;14.90;76.25
75051;BME280;63628;47.656;11.310;2022-10-15T00:02:33;94433.28;;;14.98;75.29
75051;BME280;63628;47.656;11.310;2022-10-15T00:05:00;94440.72;;;15.06;75.57
75051;BME280;63628;47.656;11.310;2022-10-15T00:07:27;94443.13;;;15.07;75.73
75051;BME280;63628;47.656;11.310;2022-10-15T00:09:54;94434.31;;;14.91;75.86
75051;BME280;63628;47.656;11.310;2022-10-15T00:12:20;94433.56;;;14.96;75.98
75051;BME280;63628;47.656;11.310;2022-10-15T00:14:47;94441.53;;;14.96;75.91
75051;BME280;63628;47.656;11.310;2022-10-15T00:17:13;94430.34;;;14.99;75.45
75051;BME280;63628;47.656;11.310;2022-10-15T00:19:40;94430.88;;;14.96;75.79
75051;BME280;63628;47.656;11.310;2022-10-15T00:22:06;94426.63;;;15.00;75.40
75051;BME280;63628;47.656;11.310;2022-10-15T00:24:33;94418.09;;;14.98;75.49
75051;BME280;63628;47.656;11.310;2022-10-15T00:26:59;94418.16;;;13.75;80.13
75051;BME280;63628;47.656;11.310;2022-10-15T00:29:26;94412.94;;;13.38;83.48
75051;BME280;63628;47.656;11.310;2022-10-15T00:31:52;94419.47;;;13.67;82.47
75051;BME280;63628;47.656;11.310;2022-10-15T00:34:19;94403.19;;;14.51;77.47
75051;BME280;63628;47.656;11.310;2022-10-15T00:36:48;94410.88;;;14.83;76.59
75051;BME280;63628;47.656;11.310;2022-10-15T00:39:15;94396.50;;;14.89;76.18
75051;BME280;63628;47.656;11.310;2022-10-15T00:41:43;94396.75;;;14.83;76.40
75051;BME280;63628;47.656;11.310;2022-10-15T00:49:26;94393.63;;;12.68;85.15
75051;BME280;63628;47.656;11.310;2022-10-15T00:52:00;94385.25;;;14.16;79.20
75051;BME280;63628;47.656;11.310;2022-10-15T00:54:30;94381.06;;;14.66;77.08
75051;BME280;63628;47.656;11.310;2022-10-15T00:56:58;94377.88;;;14.74;76.08
75051;BME280;63628;47.656;11.310;2022-10-15T00:59:26;94384.72;;;14.14;78.27
75051;BME280;63628;47.656;11.310;2022-10-15T01:01:55;94385.50;;;14.00;80.38
75051;BME280;63628;47.656;11.310;2022-10-15T01:04:22;94381.88;;;14.62;77.15
75051;BME280;63628;47.656;11.310;2022-10-15T01:06:48;94368.81;;;14.70;76.16
75051;BME280;63628;47.656;11.310;2022-10-15T01:09:15;94381.31;;;14.80;76.20
75051;BME280;63628;47.656;11.310;2022-10-15T01:11:45;94375.72;;;14.81;75.81
75051;BME280;63628;47.656;11.310;2022-10-15T01:14:22;94376.28;;;14.48;77.64
75051;BME280;63628;47.656;11.310;2022-10-15T01:20:12;94376.00;;;14.80;75.47
75051;BME280;63628;47.656;11.310;2022-10-15T01:23:10;94383.44;;;14.78;76.26
75051;BME280;63628;47.656;11.310;2022-10-15T01:26:13;94375.19;;;14.84;75.76
75051;BME280;63628;47.656;11.310;2022-10-15T01:28:52;94370.63;;;14.19;78.51
75051;BME280;63628;47.656;11.310;2022-10-15T01:34:49;94372.00;;;14.67;76.54
75051;BME280;63628;47.656;11.310;2022-10-15T01:37:27;94363.22;;;14.77;75.99
75051;BME280;63628;47.656;11.310;2022-10-15T01:40:04;94379.19;;;14.82;75.34
75051;BME280;63628;47.656;11.310;2022-10-15T01:42:55;94368.28;;;14.48;77.11
75051;BME280;63628;47.656;11.310;2022-10-15T01:45:53;94371.19;;;14.77;75.70
75051;BME280;63628;47.656;11.310;2022-10-15T01:48:25;94379.72;;;14.79;75.56
75051;BME280;63628;47.656;11.310;2022-10-15T01:50:55;94363.47;;;14.80;76.13
75051;BME280;63628;47.656;11.310;2022-10-15T01:53:24;94352.81;;;14.80;75.67
75051;BME280;63628;47.656;11.310;2022-10-15T01:56:03;94360.81;;;14.75;76.11
75051;BME280;63628;47.656;11.310;2022-10-15T01:58:30;94366.41;;;14.74;75.96
75051;BME280;63628;47.656;11.310;2022-10-15T02:00:58;94359.47;;;14.78;75.52
75051;BME280;63628;47.656;11.310;2022-10-15T02:03:25;94365.06;;;14.81;75.71
75051;BME280;63628;47.656;11.310;2022-10-15T02:05:57;94363.72;;;14.84;75.21
75051;BME280;63628;47.656;11.310;2022-10-15T02:08:33;94348.28;;;14.81;75.41
75051;BME280;63628;47.656;11.310;2022-10-15T02:11:12;94362.94;;;14.68;75.25
75051;BME280;63628;47.656;11.310;2022-10-15T02:13:59;94365.03;;;14.20;78.40
75051;BME280;63628;47.656;11.310;2022-10-15T02:16:38;94356.56;;;14.69;75.93
75051;BME280;63628;47.656;11.310;2022-10-15T02:19:42;94365.09;;;14.71;76.20
75051;BME280;63628;47.656;11.310;2022-10-15T02:22:29;94351.75;;;14.76;75.34
75051;BME280;63628;47.656;11.310;2022-10-15T02:25:04;94369.06;;;14.84;75.31
75051;BME280;63628;47.656;11.310;2022-10-15T02:27:32;94354.44;;;14.56;76.61
75051;BME280;63628;47.656;11.310;2022-10-15T02:30:02;94354.94;;;14.73;76.15
75051;BME280;63628;47.656;11.310;2022-10-15T02:32:30;94368.00;;;14.75;75.96
75051;BME280;63628;47.656;11.310;2022-10-15T02:34:58;94358.66;;;14.82;75.64
75051;BME280;63628;47.656;11.310;2022-10-15T02:37:27;94358.69;;;14.72;75.63
75051;BME280;63628;47.656;11.310;2022-10-15T02:39:54;94354.41;;;14.76;75.34
75051;BME280;63628;47.656;11.310;2022-10-15T02:42:21;94359.75;;;14.71;75.79
75051;BME280;63628;47.656;11.310;2022-10-15T02:44:48;94358.44;;;14.43;76.66
75051;BME280;63628;47.656;11.310;2022-10-15T02:47:15;94377.06;;;14.58;76.39
75051;BME280;63628;47.656;11.310;2022-10-15T02:49:41;94382.66;;;14.72;75.57
75051;BME280;63628;47.656;11.310;2022-10-15T02:52:08;94367.75;;;14.71;75.69
75051;BME280;63628;47.656;11.310;2022-10-15T02:54:35;94379.47;;;14.75;75.77
75051;BME280;63628;47.656;11.310;2022-10-15T02:57:01;94375.72;;;14.76;75.51
75051;BME280;63628;47.656;11.310;2022-10-15T02:59:27;94379.19;;;14.77;75.51
75051;BME280;63628;47.656;11.310;2022-10-15T03:01:54;94362.41;;;14.66;75.84
75051;BME280;63628;47.656;11.310;2022-10-15T03:04:20;94364.03;;;14.67;75.60
75051;BME280;63628;47.656;11.310;2022-10-15T03:06:47;94368.00;;;14.70;75.58
75051;BME280;63628;47.656;11.310;2022-10-15T03:09:14;94360.84;;;14.55;76.65
75051;BME280;63628;47.656;11.310;2022-10-15T03:11:40;94357.09;;;14.66;75.39
75051;BME280;63628;47.656;11.310;2022-10-15T03:14:07;94355.50;;;14.65;75.90
75051;BME280;63628;47.656;11.310;2022-10-15T03:16:33;94350.66;;;14.26;77.42
75051;BME280;63628;47.656;11.310;2022-10-15T03:19:00;94340.53;;;14.08;78.90
75051;BME280;63628;47.656;11.310;2022-10-15T03:21:26;94328.59;;;14.31;77.26
75051;BME280;63628;47.656;11.310;2022-10-15T03:23:57;94339.53;;;14.55;76.13
75051;BME280;63628;47.656;11.310;2022-10-15T03:26:24;94324.75;;;13.56;82.75
75051;BME280;63628;47.656;11.310;2022-10-15T03:28:50;94336.06;;;14.34;77.65
75051;BME280;63628;47.656;11.310;2022-10-15T03:31:17;94322.69;;;13.83;82.36
75051;BME280;63628;47.656;11.310;2022-10-15T03:33:44;94326.22;;;14.45;76.65
75051;BME280;63628;47.656;11.310;2022-10-15T03:36:10;94323.03;;;14.48;76.46
75051;BME280;63628;47.656;11.310;2022-10-15T03:38:37;94315.28;;;14.21;77.64
75051;BME280;63628;47.656;11.310;2022-10-15T03:41:03;94321.41;;;14.42;76.68
75051;BME280;63628;47.656;11.310;2022-10-15T03:43:30;94327.56;;;14.47;76.64
75051;BME280;63628;47.656;11.310;2022-10-15T03:46:00;94322.22;;;14.52;76.05
75051;BME280;63628;47.656;11.310;2022-10-15T03:48:27;94319.56;;;14.52;75.79
75051;BME280;63628;47.656;11.310;2022-10-15T03:50:54;94338.47;;;14.51;75.98
75051;BME280;63628;47.656;11.310;2022-10-15T03:53:21;94341.66;;;14.53;76.10
75051;BME280;63628;47.656;11.310;2022-10-15T03:55:48;94347.00;;;14.53;76.24
75051;BME280;63628;47.656;11.310;2022-10-15T03:58:15;94347.53;;;14.50;76.40
75051;BME280;63628;47.656;11.310;2022-10-15T04:00:43;94333.41;;;14.34;77.70
75051;BME280;63628;47.656;11.310;2022-10-15T04:03:10;94352.06;;;14.49;76.12
75051;BME280;63628;47.656;11.310;2022-10-15T04:05:37;94346.47;;;14.46;75.84
75051;BME280;63628;47.656;11.310;2022-10-15T04:08:03;94349.28;;;13.73;81.33
75051;BME280;63628;47.656;11.310;2022-10-15T04:10:30;94355.22;;;14.36;76.81
75051;BME280;63628;47.656;11.310;2022-10-15T04:12:56;94354.44;;;14.46;76.59
75051;BME280;63628;47.656;11.310;2022-10-15T04:15:23;94351.78;;;14.51;75.93
75051;BME280;63628;47.656;11.310;2022-10-15T04:17:53;94352.84;;;14.45;75.89
75051;BME280;63628;47.656;11.310;2022-10-15T04:20:20;94352.31;;;14.48;75.72
75051;BME280;63628;47.656;11.310;2022-10-15T04:22:47;94362.44;;;14.46;76.34
75051;BME280;63628;47.656;11.310;2022-10-15T04:25:13;94343.50;;;14.37;76.17
75051;BME280;63628;47.656;11.310;2022-10-15T04:27:40;94356.03;;;14.42;76.74
75051;BME280;63628;47.656;11.310;2022-10-15T04:30:06;94353.13;;;14.48;76.28
75051;BME280;63628;47.656;11.310;2022-10-15T04:32:33;94352.59;;;14.51;75.67
75051;BME280;63628;47.656;11.310;2022-10-15T04:34:59;94349.66;;;14.58;75.65
75051;BME280;63628;47.656;11.310;2022-10-15T04:37:26;94354.72;;;14.54;75.52
75051;BME280;63628;47.656;11.310;2022-10-15T04:39:52;94348.31;;;14.45;76.07
75051;BME280;63628;47.656;11.310;2022-10-15T04:42:19;94347.75;;;14.28;76.89
75051;BME280;63628;47.656;11.310;2022-10-15T04:44:45;94343.28;;;14.44;76.17
75051;BME280;63628;47.656;11.310;2022-10-15T04:47:12;94355.25;;;14.46;76.08
75051;BME280;63628;47.656;11.310;2022-10-15T04:49:38;94352.84;;;14.50;75.91
75051;BME280;63628;47.656;11.310;2022-10-15T04:52:04;94357.13;;;14.46;76.05
75051;BME280;63628;47.656;11.310;2022-10-15T04:54:31;94356.31;;;14.50;75.29
75051;BME280;63628;47.656;11.310;2022-10-15T04:56:57;94363.78;;;14.43;75.70
75051;BME280;63628;47.656;11.310;2022-10-15T04:59:24;94371.75;;;14.48;76.19
75051;BME280;63628;47.656;11.310;2022-10-15T05:01:50;94349.88;;;14.21;78.28
75051;BME280;63628;47.656;11.310;2022-10-15T05:04:17;94361.63;;;14.45;76.24
75051;BME280;63628;47.656;11.310;2022-10-15T05:06:44;94360.03;;;14.44;75.96
75051;BME280;63628;47.656;11.310;2022-10-15T05:09:10;94368.03;;;14.44;75.98
75051;BME280;63628;47.656;11.310;2022-10-15T05:11:37;94367.22;;;14.54;75.61
75051;BME280;63628;47.656;11.310;2022-10-15T05:14:03;94373.78;;;13.90;80.93
75051;BME280;63628;47.656;11.310;2022-10-15T05:16:30;94366.91;;;14.30;77.06
75051;BME280;63628;47.656;11.310;2022-10-15T05:19:04;94369.91;;;14.49;75.94
75051;BME280;63628;47.656;11.310;2022-10-15T05:21:32;94362.09;;;14.12;78.99
75051;BME280;63628;47.656;11.310;2022-10-15T05:23:59;94375.19;;;14.34;76.40
75051;BME280;63628;47.656;11.310;2022-10-15T05:26:27;94376.78;;;13.37;83.22
75051;BME280;63628;47.656;11.310;2022-10-15T05:28:56;94378.91;;;13.35;83.31
75051;BME280;63628;47.656;11.310;2022-10-15T05:31:25;94376.47;;;14.16;77.49
75051;BME280;63628;47.656;11.310;2022-10-15T05:33:52;94376.75;;;14.24;77.25
75051;BME280;63628;47.656;11.310;2022-10-15T05:36:22;94376.19;;;13.97;80.43
75051;BME280;63628;47.656;11.310;2022-10-15T05:38:53;94387.66;;;14.28;76.82
75051;BME280;63628;47.656;11.310;2022-10-15T05:41:21;94384.25;;;14.33;77.33
75051;BME280;63628;47.656;11.310;2022-10-15T05:43:49;94395.16;;;14.36;76.24
75051;BME280;63628;47.656;11.310;2022-10-15T05:46:16;94396.22;;;14.35;77.27
75051;BME280;63628;47.656;11.310;2022-10-15T05:48:47;94397.03;;;14.41;75.74
75051;BME280;63628;47.656;11.310;2022-10-15T05:51:15;94401.78;;;14.28;76.69
75051;BME280;63628;47.656;11.310;2022-10-15T05:53:42;94398.63;;;14.42;76.14
75051;BME280;63628;47.656;11.310;2022-10-15T05:56:09;94402.88;;;14.38;76.22
75051;BME280;63628;47.656;11.310;2022-10-15T05:58:35;94413.53;;;14.38;76.69
75051;BME280;63628;47.656;11.310;2022-10-15T06:01:05;94417.03;;;14.43;75.80
75051;BME280;63628;47.656;11.310;2022-10-15T06:03:32;94413.47;;;14.17;78.50
75051;BME280;63628;47.656;11.310;2022-10-15T06:05:59;94411.13;;;14.31;76.66
75051;BME280;63628;47.656;11.310;2022-10-15T06:08:27;94415.94;;;14.39;76.14
75051;BME280;63628;47.656;11.310;2022-10-15T06:10:54;94415.34;;;14.27;77.19
75051;BME280;63628;47.656;11.310;2022-10-15T06:13:21;94421.25;;;14.34;76.39
75051;BME280;63628;47.656;11.310;2022-10-15T06:15:48;94418.19;;;13.80;81.83
75051;BME280;63628;47.656;11.310;2022-10-15T06:18:14;94427.31;;;14.24;77.07
75051;BME280;63628;47.656;11.310;2022-10-15T06:20:42;94424.84;;;13.87;81.37
75051;BME280;63628;47.656;11.310;2022-10-15T06:23:10;94431.53;;;14.05;78.18
75051;BME280;63628;47.656;11.310;2022-10-15T06:25:37;94427.88;;;14.26;76.67
75051;BME280;63628;47.656;11.310;2022-10-15T06:28:05;94435.09;;;14.36;76.61
75051;BME280;63628;47.656;11.310;2022-10-15T06:30:32;94446.28;;;14.38;76.05
75051;BME280;63628;47.656;11.310;2022-10-15T06:32:58;94440.72;;;14.45;75.73
75051;BME280;63628;47.656;11.310;2022-10-15T06:35:25;94449.47;;;14.40;76.53
75051;BME280;63628;47.656;11.310;2022-10-15T06:37:55;94453.72;;;14.36;75.69
75051;BME280;63628;47.656;11.310;2022-10-15T06:40:29;94453.16;;;14.29;76.97
75051;BME280;63628;47.656;11.310;2022-10-15T06:43:06;94448.63;;;14.29;76.25
75051;BME280;63628;47.656;11.310;2022-10-15T06:45:35;94462.50;;;14.37;75.80
75051;BME280;63628;47.656;11.310;2022-10-15T06:48:03;94464.38;;;14.36;75.87
75051;BME280;63628;47.656;11.310;2022-10-15T06:50:31;94479.31;;;14.42;76.42
75051;BME280;63628;47.656;11.310;2022-10-15T06:52:58;94476.41;;;14.44;75.68
75051;BME280;63628;47.656;11.310;2022-10-15T06:55:30;94480.88;;;14.38;79.13
75051;BME280;63628;47.656;11.310;2022-10-15T06:57:56;94481.91;;;13.59;84.72
75051;BME280;63628;47.656;11.310;2022-10-15T07:00:24;94478.41;;;14.11;78.07
75051;BME280;63628;47.656;11.310;2022-10-15T07:02:51;94486.47;;;14.32;76.31
75051;BME280;63628;47.656;11.310;2022-10-15T07:05:18;94490.19;;;14.36;78.40
75051;BME280;63628;47.656;11.310;2022-10-15T07:07:52;94496.84;;;13.66;85.28
75051;BME280;63628;47.656;11.310;2022-10-15T07:10:19;94497.81;;;14.12;77.93
75051;BME280;63628;47.656;11.310;2022-10-15T07:12:51;94489.34;;;14.25;76.97
75051;BME280;63628;47.656;11.310;2022-10-15T07:15:19;94502.44;;;14.32;76.41
75051;BME280;63628;47.656;11.310;2022-10-15T07:17:50;94509.84;;;14.29;76.59
75051;BME280;63628;47.656;11.310;2022-10-15T07:20:18;94511.19;;;14.27;77.30
75051;BME280;63628;47.656;11.310;2022-10-15T07:22:49;94517.88;;;14.35;76.01
75051;BME280;63628;47.656;11.310;2022-10-15T07:25:16;94518.69;;;14.35;76.28
75051;BME280;63628;47.656;11.310;2022-10-15T07:27:42;94522.16;;;14.41;75.88
75051;BME280;63628;47.656;11.310;2022-10-15T07:30:09;94525.59;;;14.36;76.23
75051;BME280;63628;47.656;11.310;2022-10-15T07:32:36;94528.00;;;14.33;80.64
75051;BME280;63628;47.656;11.310;2022-10-15T07:35:02;94527.94;;;14.27;76.81
75051;BME280;63628;47.656;11.310;2022-10-15T07:37:30;94521.31;;;14.30;81.57
75051;BME280;63628;47.656;11.310;2022-10-15T07:39:57;94535.66;;;14.19;77.20
75051;BME280;63628;47.656;11.310;2022-10-15T07:42:23;94538.38;;;14.34;80.47
75051;BME280;63628;47.656;11.310;2022-10-15T07:44:49;94532.91;;;13.99;80.15
75051;BME280;63628;47.656;11.310;2022-10-15T07:47:16;94529.53;;;14.23;77.45
75051;BME280;63628;47.656;11.310;2022-10-15T07:49:43;94528.75;;;14.28;77.00
75051;BME280;63628;47.656;11.310;2022-10-15T07:52:09;94533.25;;;14.17;84.44
75051;BME280;63628;47.656;11.310;2022-10-15T07:54:36;94528.19;;;14.16;78.71
75051;BME280;63628;47.656;11.310;2022-10-15T07:57:03;94532.78;;;14.31;76.98
75051;BME280;63628;47.656;11.310;2022-10-15T07:59:33;94525.41;;;14.48;79.25
75051;BME280;63628;47.656;11.310;2022-10-15T08:01:59;94529.34;;;14.35;76.19
75051;BME280;63628;47.656;11.310;2022-10-15T08:04:26;94538.13;;;14.36;76.12
75051;BME280;63628;47.656;11.310;2022-10-15T08:06:53;94531.72;;;14.32;75.94
75051;BME280;63628;47.656;11.310;2022-10-15T08:09:19;94538.91;;;14.36;76.21
75051;BME280;63628;47.656;11.310;2022-10-15T08:11:46;94538.38;;;14.34;76.09
75051;BME280;63628;47.656;11.310;2022-10-15T08:14:12;94543.16;;;14.32;76.33
75051;BME280;63628;47.656;11.310;2022-10-15T08:16:40;94544.50;;;14.35;76.43
75051;BME280;63628;47.656;11.310;2022-10-15T08:19:06;94549.84;;;14.40;76.27
75051;BME280;63628;47.656;11.310;2022-10-15T08:21:33;94544.59;;;14.55;80.90
75051;BME280;63628;47.656;11.310;2022-10-15T08:23:59;94555.44;;;14.38;75.80
75051;BME280;63628;47.656;11.310;2022-10-15T08:26:25;94554.91;;;14.41;76.11
75051;BME280;63628;47.656;11.310;2022-10-15T08:28:52;94553.38;;;14.55;80.35
75051;BME280;63628;47.656;11.310;2022-10-15T08:31:19;94567.47;;;14.51;83.46
75051;BME280;63628;47.656;11.310;2022-10-15T08:33:45;94565.59;;;14.46;79.96
75051;BME280;63628;47.656;11.310;2022-10-15T08:36:12;94561.28;;;14.35;78.50
75051;BME280;63628;47.656;11.310;2022-10-15T08:38:38;94578.06;;;14.36;77.24
75051;BME280;63628;47.656;11.310;2022-10-15T08:41:19;94575.41;;;14.41;76.87
75051;BME280;63628;47.656;11.310;2022-10-15T08:43:47;94579.66;;;14.37;76.61
75051;BME280;63628;47.656;11.310;2022-10-15T08:47:03;94574.59;;;14.40;76.35
75051;BME280;63628;47.656;11.310;2022-10-15T08:49:43;94589.06;;;14.59;80.33
75051;BME280;63628;47.656;11.310;2022-10-15T08:52:38;94595.91;;;14.40;82.26
75051;BME280;63628;47.656;11.310;2022-10-15T08:55:11;94593.16;;;14.25;84.92
75051;BME280;63628;47.656;11.310;2022-10-15T09:00:26;94592.38;;;14.29;84.86
75051;BME280;63628;47.656;11.310;2022-10-15T09:02:59;94597.69;;;14.29;78.91
75051;BME280;63628;47.656;11.310;2022-10-15T09:05:46;94595.09;;;14.40;77.79
75051;BME280;63628;47.656;11.310;2022-10-15T09:08:21;94602.84;;;14.41;76.60
75051;BME280;63628;47.656;11.310;2022-10-15T09:11:14;94596.81;;;14.61;80.26
75051;BME280;63628;47.656;11.310;2022-10-15T09:13:44;94597.84;;;14.50;85.77
75051;BME280;63628;47.656;11.310;2022-10-15T09:16:15;94587.91;;;14.35;85.85
75051;BME280;63628;47.656;11.310;2022-10-15T09:18:46;94585.75;;;14.32;82.69
75051;BME280;63628;47.656;11.310;2022-10-15T09:21:13;94589.25;;;14.38;78.09
75051;BME280;63628;47.656;11.310;2022-10-15T09:23:40;94595.31;;;14.96;85.38
75051;BME280;63628;47.656;11.310;2022-10-15T09:28:43;94581.13;;;14.85;85.42
75051;BME280;63628;47.656;11.310;2022-10-15T09:31:15;94589.66;;;14.87;87.48
75051;BME280;63628;47.656;11.310;2022-10-15T09:33:52;94585.69;;;14.89;85.17
75051;BME280;63628;47.656;11.310;2022-10-15T09:39:04;94590.13;;;14.58;79.01
75051;BME280;63628;47.656;11.310;2022-10-15T09:41:38;94593.75;;;15.40;85.40
75051;BME280;63628;47.656;11.310;2022-10-15T09:44:13;94590.03;;;15.72;84.08
75051;BME280;63628;47.656;11.310;2022-10-15T09:46:44;94595.06;;;15.53;84.46
75051;BME280;63628;47.656;11.310;2022-10-15T09:49:16;94583.63;;;15.73;84.22
75051;BME280;63628;47.656;11.310;2022-10-15T09:51:56;94599.38;;;15.64;82.97
75051;BME280;63628;47.656;11.310;2022-10-15T09:54:42;94602.53;;;15.51;82.70
75051;BME280;63628;47.656;11.310;2022-10-15T09:57:11;94599.34;;;15.23;82.06
75051;BME280;63628;47.656;11.310;2022-10-15T09:59:51;94599.34;;;15.23;78.89
75051;BME280;63628;47.656;11.310;2022-10-15T10:02:20;94606.53;;;15.08;79.63
75051;BME280;63628;47.656;11.310;2022-10-15T10:04:47;94603.31;;;15.16;82.06
75051;BME280;63628;47.656;11.310;2022-10-15T10:09:56;94607.88;;;15.36;81.97
75051;BME280;63628;47.656;11.310;2022-10-15T10:12:30;94607.38;;;16.74;79.37
75051;BME280;63628;47.656;11.310;2022-10-15T10:14:59;94599.66;;;17.51;79.09
75051;BME280;63628;47.656;11.310;2022-10-15T10:17:28;94610.22;;;16.29;75.03
75051;BME280;63628;47.656;11.310;2022-10-15T10:22:47;94613.09;;;17.07;73.94
75051;BME280;63628;47.656;11.310;2022-10-15T10:27:54;94601.19;;;17.96;76.40
75051;BME280;63628;47.656;11.310;2022-10-15T10:30:21;94603.34;;;20.85;68.89
75051;BME280;63628;47.656;11.310;2022-10-15T10:32:54;94605.38;;;21.15;64.38
75051;BME280;63628;47.656;11.310;2022-10-15T10:35:23;94608.22;;;20.55;66.51
75051;BME280;63628;47.656;11.310;2022-10-15T10:37:51;94600.81;;;17.79;65.32
75051;BME280;63628;47.656;11.310;2022-10-15T10:40:28;94605.31;;;17.44;67.56
75051;BME280;63628;47.656;11.310;2022-10-15T10:43:17;94602.84;;;17.19;67.80
75051;BME280;63628;47.656;11.310;2022-10-15T10:45:52;94603.31;;;16.82;70.89
75051;BME280;63628;47.656;11.310;2022-10-15T10:51:02;94605.66;;;16.19;74.15
75051;BME280;63628;47.656;11.310;2022-10-15T10:53:41;94597.16;;;16.82;71.06
75051;BME280;63628;47.656;11.310;2022-10-15T10:56:11;94609.97;;;16.85;73.04
75051;BME280;63628;47.656;11.310;2022-10-15T10:58:40;94614.56;;;15.74;75.38
75051;BME280;63628;47.656;11.310;2022-10-15T11:01:12;94612.41;;;15.96;74.43
75051;BME280;63628;47.656;11.310;2022-10-15T11:03:42;94612.19;;;15.67;77.36
75051;BME280;63628;47.656;11.310;2022-10-15T11:06:51;94607.34;;;15.54;76.10
75051;BME280;63628;47.656;11.310;2022-10-15T11:09:48;94601.50;;;17.22;70.01
75051;BME280;63628;47.656;11.310;2022-10-15T11:20:45;94582.28;;;15.70;75.29
75051;BME280;63628;47.656;11.310;2022-10-15T11:23:58;94590.56;;;15.64;75.94
75051;BME280;63628;47.656;11.310;2022-10-15T11:26:54;94589.31;;;16.41;75.51
75051;BME280;63628;47.656;11.310;2022-10-15T11:29:56;94581.41;;;17.24;69.36
75051;BME280;63628;47.656;11.310;2022-10-15T11:32:52;94587.81;;;16.79;70.98
75051;BME280;63628;47.656;11.310;2022-10-15T11:35:47;94581.28;;;17.05;70.43
75051;BME280;63628;47.656;11.310;2022-10-15T11:43:50;94578.88;;;17.04;70.93
75051;BME280;63628;47.656;11.310;2022-10-15T11:46:35;94576.13;;;17.48;65.91
75051;BME280;63628;47.656;11.310;2022-10-15T11:52:06;94579.66;;;17.43;72.92
75051;BME280;63628;47.656;11.310;2022-10-15T11:55:01;94580.00;;;18.72;64.59
75051;BME280;63628;47.656;11.310;2022-10-15T11:57:31;94568.34;;;19.00;64.53
75051;BME280;63628;47.656;11.310;2022-10-15T12:00:08;94559.56;;;19.13;64.48
75051;BME280;63628;47.656;11.310;2022-10-15T12:02:39;94571.38;;;16.52;72.00
75051;BME280;63628;47.656;11.310;2022-10-15T12:05:08;94561.63;;;17.59;67.12
75051;BME280;63628;47.656;11.310;2022-10-15T12:07:44;94552.56;;;17.84;65.79
75051;BME280;63628;47.656;11.310;2022-10-15T12:12:45;94545.94;;;17.77;64.99
75051;BME280;63628;47.656;11.310;2022-10-15T12:15:49;94556.19;;;17.69;64.75
75051;BME280;63628;47.656;11.310;2022-10-15T12:18:44;94545.94;;;17.77;64.81
75051;BME280;63628;47.656;11.310;2022-10-15T12:21:34;94557.47;;;17.77;66.22
75051;BME280;63628;47.656;11.310;2022-10-15T12:24:02;94553.50;;;17.69;67.35
75051;BME280;63628;47.656;11.310;2022-10-15T12:26:31;94559.06;;;17.78;66.01
75051;BME280;63628;47.656;11.310;2022-10-15T12:29:00;94559.94;;;17.68;69.35
75051;BME280;63628;47.656;11.310;2022-10-15T12:31:49;94554.19;;;16.73;71.06
75051;BME280;63628;47.656;11.310;2022-10-15T12:34:26;94566.00;;;17.45;71.63
75051;BME280;63628;47.656;11.310;2022-10-15T12:37:02;94573.03;;;16.42;73.24
75051;BME280;63628;47.656;11.310;2022-10-15T12:39:29;94568.53;;;16.33;75.85
75051;BME280;63628;47.656;11.310;2022-10-15T12:44:49;94572.00;;;16.93;74.61
75051;BME280;63628;47.656;11.310;2022-10-15T12:47:52;94569.38;;;17.90;68.88
75051;BME280;63628;47.656;11.310;2022-10-15T12:50:26;94586.16;;;16.34;73.54
75051;BME280;63628;47.656;11.310;2022-10-15T12:53:03;94573.41;;;16.05;74.72
75051;BME280;63628;47.656;11.310;2022-10-15T12:55:32;94581.38;;;16.26;74.76
75051;BME280;63628;47.656;11.310;2022-10-15T13:00:48;94574.19;;;16.11;74.95
75051;BME280;63628;47.656;11.310;2022-10-15T13:03:21;94573.59;;;16.34;75.33
75051;BME280;63628;47.656;11.310;2022-10-15T13:05:50;94564.09;;;17.17;75.21
75051;BME280;63628;47.656;11.310;2022-10-15T13:08:24;94566.84;;;17.40;73.37
75051;BME280;63628;47.656;11.310;2022-10-15T13:10:54;94560.44;;;17.36;70.41
75051;BME280;63628;47.656;11.310;2022-10-15T13:13:24;94562.94;;;16.19;74.64
75051;BME280;63628;47.656;11.310;2022-10-15T13:15:57;94572.22;;;16.42;73.80
75051;BME280;63628;47.656;11.310;2022-10-15T13:18:25;94568.34;;;16.04;75.81
75051;BME280;63628;47.656;11.310;2022-10-15T13:20:53;94570.03;;;17.08;74.66
75051;BME280;63628;47.656;11.310;2022-10-15T13:23:23;94569.09;;;18.15;73.29
75051;BME280;63628;47.656;11.310;2022-10-15T13:28:38;94581.84;;;17.36;71.48
75051;BME280;63628;47.656;11.310;2022-10-15T13:31:14;94570.00;;;17.82;74.67
75051;BME280;63628;47.656;11.310;2022-10-15T13:33:42;94572.00;;;17.95;71.93
75051;BME280;63628;47.656;11.310;2022-10-15T13:36:19;94571.84;;;18.34;68.55
75051;BME280;63628;47.656;11.310;2022-10-15T13:38:58;94571.22;;;18.66;70.35
75051;BME280;63628;47.656;11.310;2022-10-15T13:41:28;94577.38;;;18.66;69.91
75051;BME280;63628;47.656;11.310;2022-10-15T13:43:56;94564.09;;;18.32;65.10
75051;BME280;63628;47.656;11.310;2022-10-15T13:46:28;94567.75;;;18.42;66.38
75051;BME280;63628;47.656;11.310;2022-10-15T13:48:56;94573.19;;;18.55;65.17
75051;BME280;63628;47.656;11.310;2022-10-15T13:51:25;94577.75;;;18.55;67.42
75051;BME280;63628;47.656;11.310;2022-10-15T13:53:54;94571.91;;;18.53;67.42
75051;BME280;63628;47.656;11.310;2022-10-15T13:56:27;94567.84;;;18.55;68.33
75051;BME280;63628;47.656;11.310;2022-10-15T13:58:54;94567.47;;;17.61;70.27
75051;BME280;63628;47.656;11.310;2022-10-15T14:01:22;94570.59;;;17.05;72.53
75051;BME280;63628;47.656;11.310;2022-10-15T14:03:57;94576.25;;;16.99;73.03
75051;BME280;63628;47.656;11.310;2022-10-15T14:06:30;94568.22;;;17.72;71.01
75051;BME280;63628;47.656;11.310;2022-10-15T14:09:10;94568.28;;;17.91;72.98